createdAt,value
2022-12-12T00:00:18.020Z,9.77
2022-12-12T00:02:49.921Z,10.20
2022-12-12T00:05:21.365Z,10.10
2022-12-12T00:07:52.655Z,10.20
2022-12-12T00:10:23.931Z,9.70
2022-12-12T00:12:55.257Z,11.90
2022-12-12T00:15:27.761Z,10.67
2022-12-12T00:17:59.070Z,11.00
2022-12-12T00:20:30.369Z,9.50
2022-12-12T00:23:01.695Z,10.57
2022-12-12T00:25:33.043Z,10.87
2022-12-12T00:28:04.539Z,11.73
2022-12-12T00:30:35.819Z,11.27
2022-12-12T00:33:07.085Z,11.10
2022-12-12T00:35:38.480Z,11.87
2022-12-12T00:38:09.973Z,11.50
2022-12-12T00:40:41.248Z,12.93
2022-12-12T00:43:12.662Z,10.63
2022-12-12T00:45:43.924Z,12.27
2022-12-12T00:48:15.192Z,11.50
2022-12-12T00:50:47.013Z,10.97
2022-12-12T00:53:19.057Z,11.00
2022-12-12T00:55:57.839Z,10.73
2022-12-12T00:58:30.739Z,10.47
2022-12-12T01:01:07.781Z,10.83
2022-12-12T01:03:41.069Z,12.67
2022-12-12T01:06:13.080Z,10.33
2022-12-12T01:08:44.436Z,10.63
2022-12-12T01:11:16.467Z,12.27
2022-12-12T01:13:49.447Z,11.53
2022-12-12T01:16:22.067Z,11.90
2022-12-12T01:18:53.540Z,11.07
2022-12-12T01:21:25.102Z,11.70
2022-12-12T01:23:56.429Z,12.47
2022-12-12T01:26:27.806Z,10.93
2022-12-12T01:28:59.052Z,10.97
2022-12-12T01:31:30.455Z,11.27
2022-12-12T01:34:01.752Z,11.63
2022-12-12T01:36:33.414Z,11.70
2022-12-12T01:39:05.723Z,10.70
2022-12-12T01:41:37.678Z,12.07
2022-12-12T01:44:52.594Z,10.90
2022-12-12T01:47:25.355Z,11.50
2022-12-12T01:50:04.465Z,11.93
2022-12-12T01:52:44.297Z,12.43
2022-12-12T01:55:20.496Z,12.47
2022-12-12T01:57:54.574Z,12.38
2022-12-12T02:00:25.933Z,11.50
2022-12-12T02:02:57.669Z,11.30
2022-12-12T02:05:33.775Z,11.37
2022-12-12T02:08:06.356Z,10.52
2022-12-12T02:10:37.662Z,11.37
2022-12-12T02:13:19.421Z,11.67
2022-12-12T02:16:22.459Z,10.73
2022-12-12T02:19:05.048Z,11.20
2022-12-12T02:21:46.298Z,11.97
2022-12-12T02:24:42.082Z,12.53
2022-12-12T02:27:48.216Z,11.50
2022-12-12T02:30:41.073Z,9.83
2022-12-12T02:33:49.664Z,10.00
2022-12-12T02:36:28.766Z,11.23
2022-12-12T02:39:27.379Z,10.83
2022-12-12T02:42:10.628Z,10.07
2022-12-12T02:44:56.341Z,11.30
2022-12-12T02:51:15.621Z,9.90
2022-12-12T02:53:46.961Z,10.83
2022-12-12T02:56:43.183Z,10.93
2022-12-12T02:59:20.841Z,11.33
2022-12-12T03:02:19.256Z,10.37
2022-12-12T03:05:21.354Z,9.97
2022-12-12T03:08:11.349Z,10.13
2022-12-12T03:11:41.223Z,10.93
2022-12-12T03:14:29.432Z,9.07
2022-12-12T03:17:17.529Z,10.67
2022-12-12T03:20:02.328Z,10.77
2022-12-12T03:22:43.502Z,11.50
2022-12-12T03:25:27.850Z,10.50
2022-12-12T03:28:37.980Z,10.37
2022-12-12T03:31:12.195Z,9.90
2022-12-12T03:33:46.880Z,10.30
2022-12-12T03:36:25.864Z,11.50
2022-12-12T03:39:03.245Z,9.90
2022-12-12T03:41:43.433Z,10.13
2022-12-12T03:44:20.305Z,11.13
2022-12-12T03:46:56.407Z,10.50
2022-12-12T03:49:45.265Z,10.85
2022-12-12T03:52:33.409Z,9.23
2022-12-12T03:55:12.485Z,10.82
2022-12-12T03:58:00.539Z,9.17
2022-12-12T04:00:33.641Z,10.82
2022-12-12T04:03:18.316Z,9.43
2022-12-12T04:06:25.994Z,10.70
2022-12-12T04:09:22.438Z,11.23
2022-12-12T04:12:37.770Z,10.75
2022-12-12T04:15:25.211Z,10.63
2022-12-12T04:18:17.162Z,10.23
2022-12-12T04:21:37.417Z,11.37
2022-12-12T04:24:22.799Z,10.23
2022-12-12T04:27:04.769Z,11.10
2022-12-12T04:29:38.723Z,10.70
2022-12-12T04:32:32.641Z,9.93
2022-12-12T04:35:14.015Z,10.90
2022-12-12T04:37:55.189Z,9.27
2022-12-12T04:40:33.759Z,10.23
2022-12-12T04:43:10.183Z,9.30
2022-12-12T04:48:20.586Z,10.30
2022-12-12T04:50:53.255Z,11.03
2022-12-12T04:53:32.373Z,11.03
2022-12-12T04:56:09.339Z,9.30
2022-12-12T04:58:40.772Z,9.97
2022-12-12T05:01:23.241Z,10.93
2022-12-12T05:03:58.353Z,11.30
2022-12-12T05:06:44.953Z,11.60
2022-12-12T05:09:17.847Z,12.32
2022-12-12T05:11:49.692Z,12.17
2022-12-12T05:14:21.370Z,13.27
2022-12-12T05:16:55.682Z,13.57
2022-12-12T05:19:26.952Z,14.17
2022-12-12T05:21:58.222Z,10.60
2022-12-12T05:24:31.251Z,12.97
2022-12-12T05:27:02.636Z,11.97
2022-12-12T05:29:34.065Z,10.63
2022-12-12T05:32:05.348Z,12.57
2022-12-12T05:34:36.611Z,12.17
2022-12-12T05:37:07.887Z,11.03
2022-12-12T05:39:39.199Z,11.73
2022-12-12T05:42:10.449Z,10.70
2022-12-12T05:44:41.796Z,10.60
2022-12-12T05:47:13.093Z,10.13
2022-12-12T05:49:45.187Z,11.03
2022-12-12T05:52:16.664Z,10.93
2022-12-12T05:54:47.945Z,11.37
2022-12-12T05:57:19.654Z,12.10
2022-12-12T05:59:50.917Z,12.90
2022-12-12T06:02:22.230Z,12.10
2022-12-12T06:04:53.624Z,11.70
2022-12-12T06:07:25.008Z,11.10
2022-12-12T06:09:56.315Z,11.57
2022-12-12T06:12:27.676Z,10.37
2022-12-12T06:14:58.979Z,12.20
2022-12-12T06:17:33.271Z,11.13
2022-12-12T06:20:05.554Z,10.37
2022-12-12T06:22:36.940Z,10.73
2022-12-12T06:25:08.939Z,12.13
2022-12-12T06:27:40.194Z,10.68
2022-12-12T06:30:11.928Z,11.27
2022-12-12T06:32:43.323Z,11.48
2022-12-12T06:35:14.996Z,11.60
2022-12-12T06:37:48.347Z,11.55
2022-12-12T06:40:19.851Z,12.82
2022-12-12T06:42:51.206Z,11.80
2022-12-12T06:45:22.618Z,11.30
2022-12-12T06:47:53.908Z,12.23
2022-12-12T06:50:25.294Z,12.73
2022-12-12T06:52:56.628Z,14.40
2022-12-12T06:55:27.955Z,14.05
2022-12-12T06:57:59.339Z,13.65
2022-12-12T07:00:30.803Z,12.80
2022-12-12T07:03:02.187Z,14.07
2022-12-12T07:05:33.626Z,12.57
2022-12-12T07:08:04.973Z,11.60
2022-12-12T07:10:36.571Z,13.73
2022-12-12T07:13:08.169Z,12.68
2022-12-12T07:15:48.289Z,11.93
2022-12-12T07:18:19.711Z,11.85
2022-12-12T07:20:51.042Z,12.18
2022-12-12T07:23:22.300Z,10.75
2022-12-12T07:25:53.559Z,10.38
2022-12-12T07:28:25.059Z,12.18
2022-12-12T07:30:56.449Z,11.05
2022-12-12T07:33:39.556Z,9.77
2022-12-12T07:36:14.545Z,11.70
2022-12-12T07:38:45.919Z,10.88
2022-12-12T07:41:18.810Z,10.43
2022-12-12T07:43:50.917Z,10.13
2022-12-12T07:46:25.170Z,11.73
2022-12-12T07:48:57.018Z,11.30
2022-12-12T07:51:29.609Z,10.23
2022-12-12T07:54:01.141Z,10.30
2022-12-12T07:56:32.653Z,9.43
2022-12-12T07:59:03.916Z,10.73
2022-12-12T08:01:35.656Z,11.75
2022-12-12T08:04:07.024Z,11.35
2022-12-12T08:06:38.600Z,10.70
2022-12-12T08:09:09.941Z,11.60
2022-12-12T08:11:46.132Z,11.20
2022-12-12T08:14:17.936Z,11.05
2022-12-12T08:16:49.241Z,10.85
2022-12-12T08:19:20.594Z,11.40
2022-12-12T08:21:51.891Z,11.88
2022-12-12T08:24:23.244Z,11.98
2022-12-12T08:26:54.559Z,12.32
2022-12-12T08:29:25.936Z,13.18
2022-12-12T08:31:57.611Z,12.40
2022-12-12T08:34:28.942Z,12.45
2022-12-12T08:37:00.304Z,11.85
2022-12-12T08:39:31.655Z,11.60
2022-12-12T08:42:03.722Z,11.40
2022-12-12T08:44:35.078Z,10.35
2022-12-12T08:47:06.722Z,10.55
2022-12-12T08:49:38.055Z,10.98
2022-12-12T08:52:10.307Z,12.00
2022-12-12T08:54:41.661Z,12.43
2022-12-12T08:57:12.960Z,12.23
2022-12-12T08:59:44.276Z,13.57
2022-12-12T09:02:15.706Z,13.45
2022-12-12T09:04:47.123Z,11.25
2022-12-12T09:07:18.444Z,12.13
2022-12-12T09:09:49.784Z,11.98
2022-12-12T09:12:21.144Z,12.52
2022-12-12T09:14:52.505Z,10.93
2022-12-12T09:17:23.836Z,15.70
2022-12-12T09:19:55.226Z,15.02
2022-12-12T09:22:26.853Z,12.27
2022-12-12T09:24:58.280Z,14.77
2022-12-12T09:27:29.706Z,13.60
2022-12-12T09:30:00.998Z,14.32
2022-12-12T09:32:32.267Z,15.13
2022-12-12T09:35:03.692Z,13.98
2022-12-12T09:37:35.090Z,12.80
2022-12-12T09:40:08.075Z,12.95
2022-12-12T09:42:47.948Z,13.52
2022-12-12T09:45:20.559Z,12.57
2022-12-12T09:47:58.120Z,14.33
2022-12-12T09:50:44.863Z,12.97
2022-12-12T09:53:20.111Z,14.33
2022-12-12T09:56:19.315Z,13.90
2022-12-12T09:59:00.826Z,14.50
2022-12-12T10:01:52.879Z,12.77
2022-12-12T10:04:39.869Z,14.10
2022-12-12T10:10:02.907Z,14.43
2022-12-12T10:12:34.644Z,13.33
2022-12-12T10:15:13.721Z,14.70
2022-12-12T10:17:46.678Z,15.70
2022-12-12T10:20:27.479Z,14.70
2022-12-12T10:23:19.182Z,13.43
2022-12-12T10:26:02.145Z,13.87
2022-12-12T10:28:35.224Z,14.17
2022-12-12T10:31:40.690Z,13.33
2022-12-12T10:34:33.992Z,16.17
2022-12-12T10:37:39.503Z,14.83
2022-12-12T10:40:42.002Z,15.20
2022-12-12T10:43:41.020Z,14.43
2022-12-12T10:46:20.517Z,14.97
2022-12-12T10:48:52.240Z,15.40
2022-12-12T10:51:27.435Z,17.07
2022-12-12T10:53:58.688Z,15.80
2022-12-12T10:56:30.136Z,15.27
2022-12-12T10:59:01.848Z,15.03
2022-12-12T11:04:31.452Z,15.80
2022-12-12T11:07:02.708Z,15.20
2022-12-12T11:09:34.032Z,15.30
2022-12-12T11:12:16.480Z,14.33
2022-12-12T11:14:52.835Z,14.83
2022-12-12T11:17:29.396Z,16.10
2022-12-12T11:20:09.712Z,14.70
2022-12-12T11:22:40.996Z,13.77
2022-12-12T11:25:44.623Z,14.47
2022-12-12T11:28:23.115Z,14.10
2022-12-12T11:30:56.446Z,13.37
2022-12-12T11:33:35.324Z,14.67
2022-12-12T11:36:06.992Z,13.43
2022-12-12T11:38:40.786Z,13.10
2022-12-12T11:41:12.386Z,13.97
2022-12-12T11:43:49.753Z,15.43
2022-12-12T11:46:31.936Z,13.87
2022-12-12T11:49:05.032Z,12.93
2022-12-12T11:51:40.484Z,13.90
2022-12-12T11:54:12.025Z,13.02
2022-12-12T11:56:50.095Z,12.97
2022-12-12T11:59:30.387Z,12.37
2022-12-12T12:02:22.946Z,13.00
2022-12-12T12:05:27.829Z,12.50
2022-12-12T12:08:22.526Z,13.53
2022-12-12T12:11:15.235Z,12.13
2022-12-12T12:14:02.855Z,10.77
2022-12-12T12:16:47.016Z,11.97
2022-12-12T12:19:45.784Z,11.33
2022-12-12T12:22:35.606Z,12.27
2022-12-12T12:25:25.468Z,11.53
2022-12-12T12:28:04.525Z,12.60
2022-12-12T12:31:00.443Z,12.97
2022-12-12T12:33:48.436Z,11.30
2022-12-12T12:36:24.798Z,12.47
2022-12-12T12:39:04.358Z,12.20
2022-12-12T12:41:50.851Z,11.60
2022-12-12T12:44:39.323Z,9.57
2022-12-12T12:47:31.258Z,11.63
2022-12-12T12:50:16.138Z,13.77
2022-12-12T12:52:56.909Z,11.23
2022-12-12T12:55:43.847Z,11.33
2022-12-12T13:01:02.452Z,9.73
2022-12-12T13:03:47.806Z,10.50
2022-12-12T13:06:27.695Z,11.90
2022-12-12T13:09:18.026Z,10.50
2022-12-12T13:11:53.110Z,10.30
2022-12-12T13:14:48.568Z,9.93
2022-12-12T13:17:44.696Z,11.30
2022-12-12T13:20:20.906Z,10.90
2022-12-12T13:23:15.453Z,10.80
2022-12-12T13:26:12.863Z,10.43
2022-12-12T13:31:42.730Z,9.40
2022-12-12T13:34:20.584Z,10.60
2022-12-12T13:36:53.779Z,11.40
2022-12-12T13:39:32.938Z,11.97
2022-12-12T13:42:07.391Z,10.93
2022-12-12T13:44:47.297Z,10.33
2022-12-12T13:47:21.842Z,11.10
2022-12-12T13:50:02.576Z,11.53
2022-12-12T13:52:42.078Z,12.17
2022-12-12T13:55:13.284Z,11.50
2022-12-12T13:58:02.510Z,13.13
2022-12-12T14:00:41.596Z,12.33
2022-12-12T14:03:12.912Z,12.77
2022-12-12T14:05:49.898Z,12.90
2022-12-12T14:08:26.201Z,11.77
2022-12-12T14:11:01.711Z,11.93
2022-12-12T14:13:42.853Z,9.55
2022-12-12T14:16:14.396Z,11.67
2022-12-12T14:18:51.544Z,13.00
2022-12-12T14:21:44.352Z,11.43
2022-12-12T14:24:33.767Z,11.90
2022-12-12T14:27:09.682Z,12.30
2022-12-12T14:29:43.283Z,13.13
2022-12-12T14:32:34.531Z,11.97
2022-12-12T14:35:28.988Z,13.30
2022-12-12T14:38:34.343Z,12.77
2022-12-12T14:41:14.002Z,12.60
2022-12-12T14:44:37.120Z,13.40
2022-12-12T14:46:44.066Z,13.40
2022-12-12T14:49:17.692Z,13.00
2022-12-12T14:51:51.979Z,12.93
2022-12-12T14:54:24.924Z,13.03
2022-12-12T14:57:01.357Z,12.53
2022-12-12T15:02:18.140Z,13.57
2022-12-12T15:04:58.165Z,14.00
2022-12-12T15:07:38.363Z,10.83
2022-12-12T15:10:24.116Z,11.80
2022-12-12T15:12:55.356Z,14.73
2022-12-12T15:15:31.582Z,14.97
2022-12-12T15:18:02.968Z,14.32
2022-12-12T15:20:35.204Z,15.17
2022-12-12T15:23:07.340Z,13.73
2022-12-12T15:25:46.572Z,14.23
2022-12-12T15:28:21.003Z,12.67
2022-12-12T15:30:53.688Z,13.30
2022-12-12T15:33:27.145Z,12.87
2022-12-12T15:36:04.925Z,12.80
2022-12-12T15:38:36.396Z,12.47
2022-12-12T15:41:13.531Z,12.43
2022-12-12T15:43:45.288Z,12.87
2022-12-12T15:46:16.944Z,12.40
2022-12-12T15:48:52.185Z,12.43
2022-12-12T15:51:29.985Z,14.77
2022-12-12T15:54:02.516Z,13.52
2022-12-12T15:56:33.800Z,13.77
2022-12-12T15:59:05.008Z,15.57
2022-12-12T16:01:36.487Z,14.37
2022-12-12T16:04:11.370Z,13.80
2022-12-12T16:06:44.724Z,14.88
2022-12-12T16:09:21.686Z,14.17
2022-12-12T16:11:57.515Z,15.13
2022-12-12T16:14:42.147Z,14.32
2022-12-12T16:17:23.198Z,14.88
2022-12-12T16:20:00.643Z,12.18
2022-12-12T16:22:43.894Z,14.20
2022-12-12T16:25:27.217Z,14.60
2022-12-12T16:28:08.069Z,13.47
2022-12-12T16:30:41.752Z,14.25
2022-12-12T16:33:25.360Z,15.85
2022-12-12T16:35:59.178Z,16.00
2022-12-12T16:38:31.023Z,15.27
2022-12-12T16:41:17.139Z,16.50
2022-12-12T16:43:48.587Z,16.40
2022-12-12T16:46:21.649Z,19.38
2022-12-12T16:48:53.307Z,19.92
2022-12-12T16:51:28.396Z,22.13
2022-12-12T16:53:59.888Z,18.95
2022-12-12T16:56:31.205Z,18.85
2022-12-12T16:59:02.517Z,20.55
2022-12-12T17:01:38.583Z,19.50
2022-12-12T17:06:50.247Z,14.80
2022-12-12T17:09:25.475Z,20.48
2022-12-12T17:11:59.637Z,18.63
2022-12-12T17:14:30.990Z,19.05
2022-12-12T17:17:05.433Z,16.60
2022-12-12T17:19:36.756Z,19.15
2022-12-12T17:22:08.118Z,19.95
2022-12-12T17:24:39.465Z,17.05
2022-12-12T17:27:10.751Z,17.25
2022-12-12T17:29:42.004Z,15.55
2022-12-12T17:32:13.332Z,15.25
2022-12-12T17:34:44.655Z,16.77
2022-12-12T17:37:15.951Z,16.67
2022-12-12T17:39:47.324Z,24.70
2022-12-12T17:42:18.850Z,21.70
2022-12-12T17:44:50.293Z,19.17
2022-12-12T17:47:21.726Z,17.23
2022-12-12T17:49:53.008Z,15.52
2022-12-12T17:52:24.321Z,16.75
2022-12-12T17:55:53.570Z,15.50
2022-12-12T17:57:46.833Z,21.67
2022-12-12T18:00:18.342Z,20.30
2022-12-12T18:02:49.618Z,21.10
2022-12-12T18:05:20.960Z,21.20
2022-12-12T18:07:52.381Z,20.20
2022-12-12T18:10:23.696Z,21.23
2022-12-12T18:12:55.089Z,20.42
2022-12-12T18:15:26.343Z,19.92
2022-12-12T18:17:57.613Z,18.67
2022-12-12T18:20:31.491Z,17.98
2022-12-12T18:23:03.367Z,18.67
2022-12-12T18:25:37.374Z,17.17
2022-12-12T18:28:12.179Z,17.52
2022-12-12T18:30:43.513Z,17.52
2022-12-12T18:33:14.770Z,17.30
2022-12-12T18:35:46.023Z,14.95
2022-12-12T18:38:18.985Z,14.93
2022-12-12T18:40:52.680Z,13.95
2022-12-12T18:43:26.106Z,14.80
2022-12-12T18:46:02.960Z,14.30
2022-12-12T18:48:35.258Z,15.50
2022-12-12T18:51:11.412Z,18.20
2022-12-12T18:53:44.270Z,16.85
2022-12-12T18:56:19.179Z,21.88
2022-12-12T18:58:53.115Z,20.10
2022-12-12T19:01:27.628Z,19.27
2022-12-12T19:04:04.529Z,18.67
2022-12-12T19:06:40.034Z,17.00
2022-12-12T19:09:16.668Z,17.10
2022-12-12T19:11:49.434Z,19.67
2022-12-12T19:14:21.505Z,20.38
2022-12-12T19:16:52.919Z,17.67
2022-12-12T19:19:24.404Z,18.33
2022-12-12T19:21:55.670Z,17.70
2022-12-12T19:24:27.066Z,17.05
2022-12-12T19:26:58.326Z,15.52
2022-12-12T19:29:29.648Z,15.27
2022-12-12T19:32:00.991Z,18.15
2022-12-12T19:34:32.360Z,17.00
2022-12-12T19:37:03.852Z,16.80
2022-12-12T19:39:35.287Z,15.93
2022-12-12T19:42:06.693Z,16.60
2022-12-12T19:44:43.187Z,16.83
2022-12-12T19:47:16.666Z,15.77
2022-12-12T19:49:49.462Z,17.10
2022-12-12T19:52:21.104Z,17.40
2022-12-12T19:54:52.624Z,17.35
2022-12-12T19:57:26.162Z,15.68
2022-12-12T19:59:57.507Z,19.90
2022-12-12T20:02:29.141Z,16.80
2022-12-12T20:05:00.455Z,18.05
2022-12-12T20:07:31.752Z,16.40
2022-12-12T20:10:03.378Z,18.63
2022-12-12T20:12:34.653Z,18.50
2022-12-12T20:15:06.499Z,20.52
2022-12-12T20:17:37.855Z,19.58
2022-12-12T20:20:10.843Z,22.30
2022-12-12T20:22:42.198Z,20.63
2022-12-12T20:25:13.487Z,20.92
2022-12-12T20:27:44.986Z,22.50
2022-12-12T20:30:16.740Z,24.50
2022-12-12T20:32:48.323Z,20.58
2022-12-12T20:35:19.661Z,23.10
2022-12-12T20:37:51.017Z,20.35
2022-12-12T20:40:22.586Z,18.55
2022-12-12T20:43:01.615Z,17.90
2022-12-12T20:45:38.486Z,21.80
2022-12-12T20:48:09.967Z,20.58
2022-12-12T20:50:41.636Z,19.67
2022-12-12T20:53:13.234Z,20.63
2022-12-12T20:55:44.767Z,20.25
2022-12-12T20:58:16.083Z,19.38
2022-12-12T21:00:47.388Z,18.90
2022-12-12T21:03:18.712Z,16.33
2022-12-12T21:05:50.488Z,18.63
2022-12-12T21:08:21.883Z,17.20
2022-12-12T21:10:53.197Z,16.70
2022-12-12T21:13:24.512Z,16.02
2022-12-12T21:15:55.822Z,16.50
2022-12-12T21:18:27.212Z,17.40
2022-12-12T21:20:58.451Z,19.73
2022-12-12T21:23:30.256Z,21.35
2022-12-12T21:26:06.422Z,25.13
2022-12-12T21:28:38.290Z,24.95
2022-12-12T21:31:11.697Z,23.90
2022-12-12T21:33:43.696Z,25.13
2022-12-12T21:36:17.742Z,21.80
2022-12-12T21:38:50.022Z,24.33
2022-12-12T21:41:22.796Z,22.55
2022-12-12T21:43:59.299Z,22.10
2022-12-12T21:46:30.615Z,21.92
2022-12-12T21:49:19.903Z,23.85
2022-12-12T21:51:52.532Z,23.75
2022-12-12T21:54:24.056Z,23.30
2022-12-12T21:56:56.905Z,20.02
2022-12-12T21:59:28.951Z,21.35
2022-12-12T22:02:00.603Z,19.38
2022-12-12T22:04:32.147Z,20.30
2022-12-12T22:07:03.387Z,20.10
2022-12-12T22:09:34.633Z,21.17
2022-12-12T22:12:06.441Z,18.88
2022-12-12T22:14:37.689Z,18.63
2022-12-12T22:17:08.940Z,20.58
2022-12-12T22:19:40.172Z,20.10
2022-12-12T22:22:11.420Z,19.55
2022-12-12T22:24:42.686Z,17.33
2022-12-12T22:27:13.979Z,18.85
2022-12-12T22:29:45.331Z,17.00
2022-12-12T22:32:16.690Z,17.42
2022-12-12T22:34:48.488Z,19.65
2022-12-12T22:37:19.792Z,18.42
2022-12-12T22:39:51.048Z,18.50
2022-12-12T22:42:22.304Z,17.33
2022-12-12T22:44:53.548Z,17.95
2022-12-12T22:47:24.886Z,18.48
2022-12-12T22:49:56.261Z,19.33
2022-12-12T22:52:28.841Z,18.30
2022-12-12T22:55:00.304Z,22.13
2022-12-12T22:57:31.603Z,20.08
2022-12-12T23:00:04.459Z,19.98
2022-12-12T23:02:35.728Z,19.48
2022-12-12T23:05:07.324Z,18.42
2022-12-12T23:07:38.690Z,19.30
2022-12-12T23:10:10.109Z,18.92
2022-12-12T23:12:41.395Z,19.23
2022-12-12T23:15:13.047Z,20.98
2022-12-12T23:17:44.503Z,18.02
2022-12-12T23:20:15.887Z,16.17
2022-12-12T23:22:47.195Z,18.63
2022-12-12T23:25:18.461Z,17.20
2022-12-12T23:27:49.740Z,16.45
2022-12-12T23:30:20.993Z,19.35
2022-12-12T23:32:52.443Z,15.70
2022-12-12T23:35:23.686Z,16.55
2022-12-12T23:37:54.941Z,16.95
2022-12-12T23:40:26.231Z,17.27
2022-12-12T23:42:57.479Z,16.15
2022-12-12T23:45:29.407Z,15.50
2022-12-12T23:48:00.703Z,15.48
2022-12-12T23:50:32.616Z,15.63
2022-12-12T23:53:09.050Z,17.08
2022-12-12T23:55:41.769Z,16.05
2022-12-12T23:58:13.121Z,16.17
